WetterOnline ( http://www.wetteronline.de )

Wetter aktuell Schwerin

Aktuelles Wetter: Schwerin (68m)

6-stündlich | Neueste Meldungen
Ortszeit Temperatur Wetter
Do, 19.07. 2:00 17.1° C fast wolkenlos
Mi, 18.07. 20:00 23.7° C wolkenlos
Mi, 18.07. 14:00 23.8° C leicht bewölkt
Mi, 18.07. 8:00 16.9° C leicht bewölkt
Mi, 18.07. 2:00 19.3° C wolkig
Di, 17.07. 20:00 27.0° C leicht bewölkt
Di, 17.07. 14:00 27.0° C leicht bewölkt
Di, 17.07. 8:00 21.1° C wolkenlos
Ortszeit Temperatur Wetter
Do, 19.07. 6:00 15.3° C leicht bewölkt
Do, 19.07. 5:50 15.3° C leicht bewölkt
Do, 19.07. 5:40 15.2° C leicht bewölkt
Do, 19.07. 5:30 15.1° C leicht bewölkt
Do, 19.07. 5:20 15.1° C fast wolkenlos
Do, 19.07. 5:10 15.1° C fast wolkenlos
Do, 19.07. 5:00 15.1° C leicht bewölkt
Do, 19.07. 4:30 15.3° C wolkig
Do, 19.07. 4:00 15.7° C leicht bewölkt
Do, 19.07. 3:30 16.1° C fast wolkenlos
Do, 19.07. 3:00 16.3° C leicht bewölkt
Ortszeit Relative Feuchte Sichtweite
Do, 19.07. 2:00 69% 40 km
Mi, 18.07. 20:00 48% 40 km
Mi, 18.07. 14:00 47% 30 km
Mi, 18.07. 8:00 80% 17 km
Mi, 18.07. 2:00 70% 20 km
Di, 17.07. 20:00 36% 35 km
Di, 17.07. 14:00 41% 24 km
Di, 17.07. 8:00 80% 9 km
Ortszeit Relative Feuchte Sichtweite
Do, 19.07. 6:00 86% 29 km
Do, 19.07. 5:50 86% -
Do, 19.07. 5:40 86% -
Do, 19.07. 5:30 85% 29 km
Do, 19.07. 5:20 85% -
Do, 19.07. 5:10 84% -
Do, 19.07. 5:00 83% 30 km
Do, 19.07. 4:30 81% 30 km
Do, 19.07. 4:00 79% 35 km
Do, 19.07. 3:30 77% 40 km
Do, 19.07. 3:00 74% 40 km
Ortszeit Niederschlagsmenge Niederschlagsart
Do, 19.07. 2:00 0.0 l/m2 in 6 Std. -
Mi, 18.07. 20:00 0.0 l/m2 in 12 Std. -
Mi, 18.07. 14:00 0.0 l/m2 in 6 Std. -
Mi, 18.07. 8:00 0.0 l/m2 in 12 Std. -
Mi, 18.07. 2:00 0.0 l/m2 in 6 Std. -
Di, 17.07. 20:00 0.0 l/m2 in 12 Std. -
Di, 17.07. 14:00 0.0 l/m2 in 6 Std. -
Di, 17.07. 8:00 0.0 l/m2 in 12 Std. -
Ortszeit Niederschlagsmenge Niederschlagsart
Do, 19.07. 6:00 0.0 l/m2 in 1 Std. -
Do, 19.07. 5:50 keine Meldung -
Do, 19.07. 5:40 keine Meldung -
Do, 19.07. 5:30 0.0 l/m2 in 1 Std. -
Do, 19.07. 5:20 keine Meldung -
Do, 19.07. 5:10 keine Meldung -
Do, 19.07. 5:00 0.0 l/m2 in 1 Std. -
Do, 19.07. 4:30 0.0 l/m2 in 1 Std. -
Do, 19.07. 4:00 0.0 l/m2 in 1 Std. -
Do, 19.07. 3:30 0.0 l/m2 in 1 Std. -
Do, 19.07. 3:00 0.0 l/m2 in 1 Std. -
Ortszeit Stärke Spitze Richtung
km/h Bft. km/h Grad Sektor
Do, 19.07. 2:00 14 3 32 320° NW
Mi, 18.07. 20:00 19 3 35 340° N
Mi, 18.07. 14:00 14 3 36 310° NW
Mi, 18.07. 8:00 15 3 28 290° W
Mi, 18.07. 2:00 14 3 29 320° NW
Di, 17.07. 20:00 7 2 32 50° NO
Di, 17.07. 14:00 14 3 29 70° O
Di, 17.07. 8:00 0 0 11 - -
Ortszeit Stärke Spitze Richtung
km/h Bft. km/h Grad Sektor
Do, 19.07. 6:00 11 2 18 320° NW
Do, 19.07. 5:50 11 2 - 320° NW
Do, 19.07. 5:40 11 2 - 320° NW
Do, 19.07. 5:30 11 2 17 330° NW
Do, 19.07. 5:20 11 2 - 330° NW
Do, 19.07. 5:10 11 2 - 330° NW
Do, 19.07. 5:00 11 2 20 320° NW
Do, 19.07. 4:30 11 2 18 320° NW
Do, 19.07. 4:00 11 2 22 310° NW
Do, 19.07. 3:30 11 2 18 330° NW
Do, 19.07. 3:00 11 2 25 320° NW
Ortszeit Untergrenze Bedeckung Gattung
total tief tief mittel hoch
Do, 19.07. 2:00 3600 m 1/8 1/8 - - -
Mi, 18.07. 20:00 - 0/8 0/8 - - -
Mi, 18.07. 14:00 1350 m 7/8 1/8 - - -
Mi, 18.07. 8:00 3600 m 6/8 1/8 - - -
Mi, 18.07. 2:00 3300 m 7/8 1/8 - - -
Di, 17.07. 20:00 9000 m 5/8 0/8 - - -
Di, 17.07. 14:00 10500 m 4/8 0/8 - - -
Di, 17.07. 8:00 9000 m 0/8 0/8 - - -
Ortszeit Bedeckungsgrad in Achtel und Wolkenuntergrenze
Do, 19.07. 6:00 2(2700m)
Do, 19.07. 5:50 2(2700m)
Do, 19.07. 5:40 2(2700m)
Do, 19.07. 5:30 1(3000m) 9 9
Do, 19.07. 5:20 1(3000m)
Do, 19.07. 5:10 1(3000m) 1(10500m)
Do, 19.07. 5:00 1(9000m) 5(10500m)
Do, 19.07. 4:30 2(1500m) 8(9000m)
Do, 19.07. 4:00 3(1470m) 5(9000m)
Do, 19.07. 3:30 1(3300m)
Do, 19.07. 3:00 1(3000m) 9 9
Ortszeit Luftdruck NN (hPa) Tendenz (hPa in 3 Std.)
Do, 19.07. 2:00 1018 + 0,6
Mi, 18.07. 20:00 1016 + 0,4
Mi, 18.07. 14:00 1016 - 0,1
Mi, 18.07. 8:00 1015 + 0,8
Mi, 18.07. 2:00 1014 + 1,0
Di, 17.07. 20:00 1012 0,0
Di, 17.07. 14:00 1012 - 0,5
Di, 17.07. 8:00 1013 + 0,1
Ortszeit Luftdruck NN (hPa) Tendenz (hPa in 3 Std.)
Do, 19.07. 6:00 1018 + 0,1
Do, 19.07. 5:50 1018 keine Meldung
Do, 19.07. 5:40 1018 keine Meldung
Do, 19.07. 5:30 1018 - 0,1
Do, 19.07. 5:20 1018 keine Meldung
Do, 19.07. 5:10 1018 keine Meldung
Do, 19.07. 5:00 1017 - 0,1
Do, 19.07. 4:30 1017 - 0,1
Do, 19.07. 4:00 1017 - 0,1
Do, 19.07. 3:30 1017 0,0
Do, 19.07. 3:00 1018 + 0,2
Ortszeit Schneehöhe (cm)
Do, 19.07. 2:00 -
Mi, 18.07. 20:00 -
Mi, 18.07. 14:00 -
Mi, 18.07. 8:00 -
Mi, 18.07. 2:00 -
Di, 17.07. 20:00 -
Di, 17.07. 14:00 -
Di, 17.07. 8:00 -
Ortszeit Schneehöhe (cm)
Do, 19.07. 6:00 -
Do, 19.07. 5:50 -
Do, 19.07. 5:40 -
Do, 19.07. 5:30 -
Do, 19.07. 5:20 -
Do, 19.07. 5:10 -
Do, 19.07. 5:00 -
Do, 19.07. 4:30 -
Do, 19.07. 4:00 -
Do, 19.07. 3:30 -
Do, 19.07. 3:00 -
Link zu dieser Seite / Seite empfehlen

Das Wetter in ...